| time (UTC) | temp F | wind direction | speed MPH | gust MPH | rain 1hr in | rain 24hr in | rain mn in | humidity % | barometer mb |
| 20260906012946 | 75 | 2 | 0.0 | 0.0 | 0.00 | 0.07 | 0.00 | 84 | 1012.8 |
| 20260906012446 | 75 | 2 | 0.0 | 0.0 | 0.00 | 0.07 | 0.00 | 84 | 1012.9 |
| 20260906011946 | 75 | 2 | 0.0 | 0.0 | 0.00 | 0.07 | 0.00 | 83 | 1013.0 |
| 20260906011451 | 75 | 2 | 0.0 | 0.0 | 0.00 | 0.07 | 0.00 | 83 | 1013.1 |
| 20260906010958 | 75 | 2 | 0.0 | 0.0 | 0.00 | 0.07 | 0.00 | 83 | 1013.0 |
| 20260906010451 | 75 | 2 | 0.0 | 0.0 | 0.00 | 0.07 | 0.00 | 83 | 1012.9 |
| 20260906005958 | 75 | 2 | 0.0 | 0.0 | 0.00 | 0.07 | 0.00 | 83 | 1012.9 |
| 20260906005447 | 75 | 2 | 0.0 | 0.0 | 0.00 | 0.07 | 0.00 | 83 | 1013.0 |
| 20260906004946 | 75 | 2 | 0.0 | 0.0 | 0.00 | 0.07 | 0.00 | 83 | 1012.9 |
| 20260906004112 | 75 | 2 | 0.0 | 0.0 | 0.00 | 0.07 | 0.00 | 83 | 1013.1 |
| 20260906003611 | 75 | 2 | 0.0 | 0.0 | 0.00 | 0.07 | 0.00 | 83 | 1012.9 |
| 20260906003112 | 75 | 2 | 0.0 | 0.0 | 0.00 | 0.07 | 0.00 | 83 | 1012.8 |
| 20260906002611 | 75 | 2 | 0.0 | 0.0 | 0.00 | 0.07 | 0.00 | 83 | 1012.7 |
| 20260906002112 | 75 | 2 | 0.0 | 0.0 | 0.00 | 0.07 | 0.07 | 83 | 1012.6 |
| 20260906001612 | 76 | 2 | 0.0 | 0.0 | 0.00 | 0.07 | 0.07 | 83 | 1012.6 |
| 20260906001111 | 76 | 2 | 0.0 | 1.0 | 0.00 | 0.07 | 0.07 | 83 | 1012.6 |
| 20260906000612 | 76 | 2 | 0.0 | 1.0 | 0.00 | 0.07 | 0.07 | 83 | 1012.4 |
| 20260906000112 | 76 | 2 | 0.0 | 0.0 | 0.00 | 0.07 | 0.07 | 83 | 1012.4 |
| 20260905235612 | 76 | 2 | 0.0 | 0.0 | 0.00 | 0.07 | 0.07 | 83 | 1012.3 |
| 20260905235112 | 76 | 2 | 0.0 | 0.0 | 0.00 | 0.07 | 0.07 | 83 | 1012.3 |
| 20260905234612 | 76 | 2 | 0.0 | 0.0 | 0.00 | 0.07 | 0.07 | 83 | 1012.2 |
| 20260905234111 | 76 | 2 | 0.0 | 0.0 | 0.00 | 0.07 | 0.07 | 83 | 1012.2 |
| 20260905233611 | 76 | 2 | 0.0 | 0.0 | 0.00 | 0.07 | 0.07 | 83 | 1012.1 |
| 20260905233111 | 76 | 2 | 0.0 | 0.0 | 0.00 | 0.07 | 0.07 | 83 | 1012.1 |
| 20260905232612 | 76 | 2 | 0.0 | 0.0 | 0.00 | 0.07 | 0.07 | 83 | 1012.0 |
| 20260905232117 | 76 | 2 | 0.0 | 0.0 | 0.00 | 0.07 | 0.07 | 83 | 1012.0 |
| 20260905231624 | 76 | 2 | 0.0 | 0.0 | 0.00 | 0.07 | 0.07 | 83 | 1012.0 |
| 20260905231112 | 76 | 2 | 0.0 | 0.0 | 0.00 | 0.07 | 0.07 | 83 | 1012.0 |
| 20260905230612 | 76 | 2 | 0.0 | 0.0 | 0.00 | 0.07 | 0.07 | 83 | 1011.9 |
| 20260905230112 | 76 | 2 | 0.0 | 0.0 | 0.00 | 0.07 | 0.07 | 82 | 1012.0 |
| 20260905225612 | 76 | 2 | 0.0 | 0.0 | 0.00 | 0.07 | 0.07 | 82 | 1012.0 |
| 20260905225112 | 76 | 2 | 0.0 | 0.0 | 0.00 | 0.07 | 0.07 | 82 | 1012.1 |
| 20260905224612 | 76 | 2 | 0.0 | 0.0 | 0.00 | 0.07 | 0.07 | 82 | 1012.1 |
| 20260905224112 | 76 | 2 | 0.0 | 0.0 | 0.00 | 0.07 | 0.07 | 82 | 1012.1 |
| 20260905223612 | 76 | 2 | 0.0 | 0.0 | 0.00 | 0.07 | 0.07 | 82 | 1012.0 |
| 20260905223111 | 76 | 2 | 0.0 | 0.0 | 0.00 | 0.07 | 0.07 | 82 | 1011.9 |
| 20260905222612 | 76 | 2 | 0.0 | 0.0 | 0.00 | 0.07 | 0.07 | 82 | 1011.8 |
| 20260905222112 | 76 | 2 | 0.0 | 0.0 | 0.00 | 0.07 | 0.07 | 82 | 1011.6 |
| 20260905221617 | 77 | 2 | 0.0 | 0.0 | 0.00 | 0.07 | 0.07 | 81 | 1011.5 |
| 20260905221124 | 77 | 2 | 0.0 | 0.0 | 0.00 | 0.07 | 0.07 | 81 | 1011.5 |
| 20260905220612 | 77 | 2 | 0.0 | 0.0 | 0.01 | 0.07 | 0.07 | 79 | 1011.5 |
| 20260905220112 | 77 | 2 | 0.0 | 0.0 | 0.01 | 0.07 | 0.07 | 78 | 1011.6 |
| 20260905215612 | 77 | 2 | 0.0 | 0.0 | 0.02 | 0.07 | 0.07 | 78 | 1011.9 |
| 20260905215113 | 77 | 2 | 0.0 | 0.0 | 0.04 | 0.07 | 0.07 | 78 | 1011.8 |
| 20260905214612 | 78 | 2 | 0.0 | 0.0 | 0.07 | 0.07 | 0.07 | 78 | 1011.8 |
| 20260905214112 | 78 | 2 | 0.0 | 0.0 | 0.07 | 0.07 | 0.07 | 77 | 1012.3 |
| 20260905213317 | 78 | 2 | 0.0 | 0.0 | 0.07 | 0.07 | 0.07 | 77 | 1012.3 |
| 20260905212400 | 79 | 2 | 0.0 | 0.0 | 0.07 | 0.07 | 0.07 | 77 | 1012.2 |
| 20260905211601 | 80 | 2 | 0.0 | 2.0 | 0.07 | 0.07 | 0.07 | 74 | 1012.4 |
| 20260905211108 | 81 | 2 | 0.0 | 2.0 | 0.07 | 0.07 | 0.07 | 73 | 1012.5 |
| 20260905210601 | 81 | 2 | 0.0 | 0.0 | 0.06 | 0.06 | 0.06 | 71 | 1012.4 |
| 20260905210108 | 81 | 2 | 0.0 | 0.0 | 0.06 | 0.06 | 0.06 | 70 | 1012.6 |
| 20260905205555 | 82 | 2 | 0.0 | 2.0 | 0.06 | 0.06 | 0.06 | 67 | 1012.6 |
| 20260905205055 | 84 | 2 | 0.0 | 2.0 | 0.04 | 0.04 | 0.04 | 64 | 1012.7 |
| 20260905204555 | 86 | 2 | 0.0 | 7.0 | 0.00 | 0.00 | 0.00 | 55 | 1012.8 |
| 20260905204059 | 88 | 2 | 0.0 | 7.0 | 0.00 | 0.00 | 0.00 | 51 | 1012.6 |
| 20260905203606 | 91 | 2 | 1.0 | 5.0 | 0.00 | 0.00 | 0.00 | 47 | 1012.4 |
| 20260905203113 | 95 | 92 | 0.0 | 3.0 | 0.00 | 0.00 | 0.00 | 40 | 1011.9 |
| 20260905202608 | 98 | 92 | 0.0 | 1.0 | 0.00 | 0.00 | 0.00 | 40 | 1011.6 |
| 20260905202055 | 98 | 92 | 0.0 | 0.0 | 0.00 | 0.00 | 0.00 | 36 | 1011.3 |
| 20260905201600 | 99 | 92 | 0.0 | 0.0 | 0.00 | 0.00 | 0.00 | 37 | 1011.2 |
| 20260905201108 | 99 | 92 | 0.0 | 1.0 | 0.00 | 0.00 | 0.00 | 36 | 1011.2 |
| 20260905200600 | 99 | 92 | 0.0 | 1.0 | 0.00 | 0.00 | 0.00 | 36 | 1010.9 |
| 20260905200107 | 100 | 92 | 0.0 | 0.0 | 0.00 | 0.00 | 0.00 | 37 | 1011.0 |
| 20260905195555 | 100 | 92 | 0.0 | 0.0 | 0.00 | 0.00 | 0.00 | 35 | 1011.2 |
| 20260905195055 | 101 | 92 | 0.0 | 0.0 | 0.00 | 0.00 | 0.00 | 35 | 1011.4 |
| 20260905194555 | 101 | 92 | 0.0 | 1.0 | 0.00 | 0.00 | 0.00 | 34 | 1011.3 |
| 20260905194055 | 102 | 92 | 0.0 | 1.0 | 0.00 | 0.00 | 0.00 | 33 | 1011.2 |
| 20260905193555 | 103 | 92 | 0.0 | 0.0 | 0.00 | 0.00 | 0.00 | 32 | 1011.2 |
| 20260905193100 | 103 | 92 | 0.0 | 1.0 | 0.00 | 0.00 | 0.00 | 32 | 1011.2 |
| 20260905192607 | 104 | 92 | 0.0 | 1.0 | 0.00 | 0.00 | 0.00 | 31 | 1011.3 |
| 20260905192055 | 104 | 92 | 0.0 | 0.0 | 0.00 | 0.00 | 0.00 | 31 | 1011.5 |
| 20260905191555 | 104 | 92 | 0.0 | 1.0 | 0.00 | 0.00 | 0.00 | 33 | 1011.6 |
| 20260905191100 | 104 | 92 | 0.0 | 1.0 | 0.00 | 0.00 | 0.00 | 32 | 1011.6 |
| 20260905190607 | 104 | 92 | 0.0 | 0.0 | 0.00 | 0.00 | 0.00 | 34 | 1011.6 |
| 20260905190055 | 103 | 92 | 0.0 | 0.0 | 0.00 | 0.00 | 0.00 | 34 | 1011.6 |
| 20260905185600 | 102 | 92 | 0.0 | 0.0 | 0.00 | 0.00 | 0.00 | 35 | 1011.7 |
| 20260905185107 | 102 | 92 | 0.0 | 0.0 | 0.00 | 0.00 | 0.00 | 36 | 1011.7 |
| 20260905184555 | 102 | 92 | 0.0 | 0.0 | 0.00 | 0.00 | 0.00 | 37 | 1011.7 |
| 20260905184055 | 101 | 92 | 0.0 | 0.0 | 0.00 | 0.00 | 0.00 | 35 | 1011.8 |
| 20260905183555 | 102 | 92 | 0.0 | 0.0 | 0.00 | 0.00 | 0.00 | 36 | 1011.8 |
| 20260905183055 | 102 | 92 | 0.0 | 0.0 | 0.00 | 0.00 | 0.00 | 34 | 1011.9 |
| 20260905182555 | 103 | 92 | 0.0 | 4.0 | 0.00 | 0.00 | 0.00 | 34 | 1012.0 |
| 20260905182055 | 103 | 92 | 0.0 | 4.0 | 0.00 | 0.00 | 0.00 | 34 | 1012.1 |
| 20260905181555 | 103 | 92 | 0.0 | 4.0 | 0.00 | 0.00 | 0.00 | 36 | 1012.2 |
| 20260905181055 | 102 | 92 | 0.0 | 0.0 | 0.00 | 0.00 | 0.00 | 35 | 1012.4 |
| 20260905180555 | 102 | 92 | 0.0 | 0.0 | 0.00 | 0.00 | 0.00 | 38 | 1012.5 |
| 20260905180055 | 102 | 92 | 0.0 | 1.0 | 0.00 | 0.00 | 0.00 | 36 | 1012.5 |
| 20260905175555 | 102 | 92 | 0.0 | 1.0 | 0.00 | 0.00 | 0.00 | 34 | 1012.5 |
| 20260905175055 | 101 | 92 | 0.0 | 1.0 | 0.00 | 0.00 | 0.00 | 36 | 1012.4 |
| 20260905174555 | 101 | 92 | 0.0 | 0.0 | 0.00 | 0.00 | 0.00 | 35 | 1012.5 |
| 20260905174055 | 101 | 92 | 0.0 | 0.0 | 0.00 | 0.00 | 0.00 | 36 | 1012.6 |
| 20260905173555 | 101 | 92 | 0.0 | 2.0 | 0.00 | 0.00 | 0.00 | 39 | 1012.7 |
| 20260905173055 | 100 | 92 | 0.0 | 2.0 | 0.00 | 0.00 | 0.00 | 38 | 1012.7 |
| 20260905172555 | 99 | 92 | 0.0 | 1.0 | 0.00 | 0.00 | 0.00 | 39 | 1012.8 |
| 20260905172055 | 98 | 92 | 0.0 | 0.0 | 0.00 | 0.00 | 0.00 | 39 | 1012.9 |
| 20260905171555 | 98 | 92 | 0.0 | 0.0 | 0.00 | 0.00 | 0.00 | 40 | 1013.0 |
| 20260905171055 | 98 | 92 | 0.0 | 0.0 | 0.00 | 0.00 | 0.00 | 40 | 1013.0 |
| 20260905170555 | 97 | 92 | 0.0 | 0.0 | 0.00 | 0.00 | 0.00 | 44 | 1013.2 |
| 20260905170055 | 97 | 92 | 0.0 | 0.0 | 0.00 | 0.00 | 0.00 | 44 | 1013.3 |
| 20260905165555 | 96 | 92 | 0.0 | 0.0 | 0.00 | 0.00 | 0.00 | 43 | 1013.4 |
| 20260905165055 | 96 | 92 | 0.0 | 0.0 | 0.00 | 0.00 | 0.00 | 43 | 1013.5 |
| 20260905164555 | 97 | 92 | 0.0 | 0.0 | 0.00 | 0.00 | 0.00 | 44 | 1013.5 |
| 20260905164055 | 97 | 92 | 0.0 | 0.0 | 0.00 | 0.00 | 0.00 | 43 | 1013.6 |
| 20260905163558 | 96 | 92 | 0.0 | 0.0 | 0.00 | 0.00 | 0.00 | 45 | 1013.7 |
| 20260905163105 | 96 | 92 | 0.0 | 0.0 | 0.00 | 0.00 | 0.00 | 49 | 1013.8 |
| 20260905162612 | 95 | 92 | 0.0 | 0.0 | 0.00 | 0.00 | 0.00 | 46 | 1013.8 |
| 20260905162107 | 95 | 92 | 0.0 | 0.0 | 0.00 | 0.00 | 0.00 | 46 | 1013.9 |
| 20260905161555 | 95 | 92 | 0.0 | 1.0 | 0.00 | 0.00 | 0.00 | 47 | 1013.9 |
| 20260905161055 | 94 | 92 | 0.0 | 2.0 | 0.00 | 0.00 | 0.00 | 47 | 1014.0 |
| 20260905160555 | 94 | 92 | 0.0 | 2.0 | 0.00 | 0.00 | 0.00 | 47 | 1014.0 |
| 20260905160055 | 93 | 92 | 0.0 | 0.0 | 0.00 | 0.00 | 0.00 | 49 | 1014.1 |
| 20260905155555 | 93 | 92 | 0.0 | 1.0 | 0.00 | 0.00 | 0.00 | 52 | 1014.1 |
| 20260905155055 | 92 | 92 | 0.0 | 1.0 | 0.00 | 0.00 | 0.00 | 52 | 1014.2 |
| 20260905154555 | 92 | 92 | 0.0 | 1.0 | 0.00 | 0.00 | 0.00 | 53 | 1014.2 |
| 20260905154055 | 91 | 92 | 0.0 | 1.0 | 0.00 | 0.00 | 0.00 | 54 | 1014.2 |
| 20260905153558 | 91 | 92 | 0.0 | 0.0 | 0.00 | 0.00 | 0.00 | 55 | 1014.2 |
| 20260905153105 | 90 | 92 | 0.0 | 0.0 | 0.00 | 0.00 | 0.00 | 57 | 1014.4 |
| 20260905152612 | 89 | 92 | 0.0 | 0.0 | 0.00 | 0.00 | 0.00 | 59 | 1014.4 |
| 20260905152120 | 88 | 92 | 0.0 | 0.0 | 0.00 | 0.00 | 0.00 | 62 | 1014.4 |
| 20260905151555 | 87 | 92 | 0.0 | 1.0 | 0.00 | 0.00 | 0.00 | 62 | 1014.5 |
| 20260905151056 | 86 | 92 | 0.0 | 1.0 | 0.00 | 0.00 | 0.00 | 64 | 1014.4 |
| 20260905150600 | 86 | 92 | 0.0 | 0.0 | 0.00 | 0.00 | 0.00 | 65 | 1014.6 |
| 20260905150107 | 85 | 92 | 0.0 | 0.0 | 0.00 | 0.00 | 0.00 | 65 | 1014.6 |
| 20260905145555 | 85 | 92 | 0.0 | 0.0 | 0.00 | 0.00 | 0.00 | 67 | 1014.8 |
| 20260905145058 | 84 | 92 | 0.0 | 0.0 | 0.00 | 0.00 | 0.00 | 68 | 1014.8 |
| 20260905144605 | 83 | 92 | 0.0 | 0.0 | 0.00 | 0.00 | 0.00 | 71 | 1014.9 |
| 20260905144112 | 83 | 92 | 0.0 | 0.0 | 0.00 | 0.00 | 0.00 | 71 | 1014.9 |
| 20260905143607 | 82 | 92 | 0.0 | 0.0 | 0.00 | 0.00 | 0.00 | 72 | 1014.9 |
| 20260905143055 | 81 | 92 | 0.0 | 0.0 | 0.00 | 0.00 | 0.00 | 75 | 1015.0 |
| 20260905142555 | 80 | 92 | 0.0 | 0.0 | 0.00 | 0.00 | 0.00 | 76 | 1015.1 |
| 20260905142055 | 79 | 92 | 0.0 | 0.0 | 0.00 | 0.00 | 0.00 | 79 | 1015.0 |
| 20260905141555 | 79 | 92 | 0.0 | 0.0 | 0.00 | 0.00 | 0.00 | 81 | 1015.1 |
| 20260905141055 | 78 | 92 | 0.0 | 0.0 | 0.00 | 0.00 | 0.00 | 82 | 1015.1 |
| 20260905140555 | 78 | 92 | 0.0 | 0.0 | 0.00 | 0.00 | 0.00 | 82 | 1015.0 |
| 20260905140055 | 77 | 92 | 0.0 | 0.0 | 0.00 | 0.00 | 0.00 | 83 | 1015.0 |
| 20260905135555 | 77 | 92 | 0.0 | 0.0 | 0.00 | 0.00 | 0.00 | 84 | 1015.0 |
| 20260905135055 | 76 | 92 | 0.0 | 0.0 | 0.00 | 0.00 | 0.00 | 84 | 1015.0 |
| 20260905134152 | 75 | 92 | 0.0 | 0.0 | 0.00 | 0.00 | 0.00 | 85 | 1015.1 |
| 20260905133610 | 75 | 92 | 0.0 | 0.0 | 0.00 | 0.00 | 0.00 | 85 | 1015.2 |
| 20260905133109 | 75 | 92 | 0.0 | 0.0 | 0.00 | 0.00 | 0.00 | 85 | 1015.2 |
| 20260905132610 | 74 | 92 | 0.0 | 0.0 | 0.00 | 0.00 | 0.00 | 85 | 1015.2 |
| 20260905132109 | 74 | 92 | 0.0 | 0.0 | 0.00 | 0.00 | 0.00 | 85 | 1015.2 |
| 20260905131610 | 74 | 92 | 0.0 | 0.0 | 0.00 | 0.00 | 0.00 | 85 | 1015.2 |
| 20260905131109 | 73 | 92 | 0.0 | 0.0 | 0.00 | 0.00 | 0.00 | 84 | 1015.3 |
| 20260905130610 | 73 | 92 | 0.0 | 0.0 | 0.00 | 0.00 | 0.00 | 84 | 1015.3 |
| 20260905130109 | 73 | 92 | 0.0 | 0.0 | 0.00 | 0.00 | 0.00 | 84 | 1015.2 |
| 20260905125609 | 73 | 92 | 0.0 | 0.0 | 0.00 | 0.00 | 0.00 | 84 | 1015.3 |
| 20260905125110 | 72 | 92 | 0.0 | 0.0 | 0.00 | 0.00 | 0.00 | 84 | 1015.2 |
| 20260905124609 | 72 | 92 | 0.0 | 0.0 | 0.00 | 0.00 | 0.00 | 84 | 1015.1 |
| 20260905124112 | 72 | 92 | 0.0 | 0.0 | 0.00 | 0.00 | 0.00 | 84 | 1015.1 |
| 20260905123612 | 72 | 92 | 0.0 | 0.0 | 0.00 | 0.00 | 0.00 | 84 | 1015.1 |
| 20260905123119 | 72 | 92 | 0.0 | 0.0 | 0.00 | 0.00 | 0.00 | 84 | 1015.1 |
| 20260905122627 | 71 | 92 | 0.0 | 0.0 | 0.00 | 0.00 | 0.00 | 83 | 1015.1 |
| 20260905122134 | 71 | 92 | 0.0 | 0.0 | 0.00 | 0.00 | 0.00 | 83 | 1015.0 |
| 20260905121609 | 71 | 92 | 0.0 | 0.0 | 0.00 | 0.00 | 0.00 | 83 | 1015.0 |
| 20260905121109 | 71 | 92 | 0.0 | 0.0 | 0.00 | 0.00 | 0.00 | 83 | 1015.0 |
| 20260905120609 | 71 | 92 | 0.0 | 0.0 | 0.00 | 0.00 | 0.00 | 83 | 1015.0 |
| 20260905120109 | 71 | 92 | 0.0 | 0.0 | 0.00 | 0.00 | 0.00 | 83 | 1015.0 |
| 20260905115609 | 71 | 92 | 0.0 | 0.0 | 0.00 | 0.00 | 0.00 | 83 | 1014.9 |
| 20260905115109 | 71 | 92 | 0.0 | 0.0 | 0.00 | 0.00 | 0.00 | 82 | 1014.8 |
| 20260905114614 | 71 | 92 | 0.0 | 0.0 | 0.00 | 0.00 | 0.00 | 82 | 1014.7 |
| 20260905114122 | 71 | 92 | 0.0 | 0.0 | 0.00 | 0.00 | 0.00 | 82 | 1014.7 |
| 20260905113609 | 71 | 92 | 0.0 | 0.0 | 0.00 | 0.00 | 0.00 | 82 | 1014.7 |
| 20260905113109 | 71 | 92 | 0.0 | 0.0 | 0.00 | 0.00 | 0.00 | 82 | 1014.6 |
| 20260905112610 | 71 | 92 | 0.0 | 0.0 | 0.00 | 0.00 | 0.00 | 82 | 1014.6 |
| 20260905112109 | 71 | 92 | 0.0 | 0.0 | 0.00 | 0.00 | 0.00 | 82 | 1014.5 |
| 20260905111609 | 72 | 92 | 0.0 | 0.0 | 0.00 | 0.00 | 0.00 | 82 | 1014.4 |
| 20260905111114 | 72 | 92 | 0.0 | 0.0 | 0.00 | 0.00 | 0.00 | 82 | 1014.4 |
| 20260905110622 | 72 | 92 | 0.0 | 0.0 | 0.00 | 0.00 | 0.00 | 82 | 1014.4 |
| 20260905110129 | 72 | 92 | 0.0 | 0.0 | 0.00 | 0.00 | 0.00 | 82 | 1014.5 |
| 20260905105624 | 72 | 92 | 0.0 | 0.0 | 0.00 | 0.00 | 0.00 | 81 | 1014.4 |
| 20260905105119 | 72 | 92 | 0.0 | 0.0 | 0.00 | 0.00 | 0.00 | 81 | 1014.5 |
| 20260905104626 | 72 | 92 | 0.0 | 0.0 | 0.00 | 0.00 | 0.00 | 81 | 1014.4 |
| 20260905104134 | 72 | 92 | 0.0 | 0.0 | 0.00 | 0.00 | 0.00 | 81 | 1014.4 |
| 20260905103609 | 72 | 92 | 0.0 | 0.0 | 0.00 | 0.00 | 0.00 | 81 | 1014.3 |
| 20260905103109 | 72 | 92 | 0.0 | 0.0 | 0.00 | 0.00 | 0.00 | 81 | 1014.3 |
| 20260905102609 | 72 | 92 | 0.0 | 0.0 | 0.00 | 0.00 | 0.00 | 81 | 1014.3 |
| 20260905102109 | 72 | 92 | 0.0 | 0.0 | 0.00 | 0.00 | 0.00 | 81 | 1014.2 |
| 20260905101609 | 72 | 92 | 0.0 | 0.0 | 0.00 | 0.00 | 0.00 | 81 | 1014.1 |
| 20260905101109 | 72 | 92 | 0.0 | 0.0 | 0.00 | 0.00 | 0.00 | 81 | 1014.1 |
| 20260905100614 | 72 | 92 | 0.0 | 0.0 | 0.00 | 0.00 | 0.00 | 81 | 1014.0 |
| 20260905100121 | 72 | 92 | 0.0 | 0.0 | 0.00 | 0.00 | 0.00 | 81 | 1014.0 |
| 20260905095609 | 72 | 92 | 0.0 | 0.0 | 0.00 | 0.00 | 0.00 | 81 | 1013.9 |
| 20260905095109 | 72 | 92 | 0.0 | 0.0 | 0.00 | 0.00 | 0.00 | 80 | 1014.0 |
| 20260905094614 | 73 | 92 | 0.0 | 0.0 | 0.00 | 0.00 | 0.00 | 80 | 1014.0 |
| 20260905094121 | 73 | 92 | 0.0 | 0.0 | 0.00 | 0.00 | 0.00 | 80 | 1014.0 |
| 20260905093609 | 73 | 92 | 0.0 | 0.0 | 0.00 | 0.00 | 0.00 | 80 | 1014.1 |
| 20260905093109 | 73 | 92 | 0.0 | 0.0 | 0.00 | 0.00 | 0.00 | 80 | 1014.0 |
| 20260905092609 | 73 | 92 | 0.0 | 0.0 | 0.00 | 0.00 | 0.00 | 80 | 1014.0 |
| 20260905092114 | 73 | 92 | 0.0 | 0.0 | 0.00 | 0.00 | 0.00 | 80 | 1014.0 |
| 20260905091621 | 73 | 92 | 0.0 | 0.0 | 0.00 | 0.00 | 0.00 | 80 | 1014.1 |
| 20260905091114 | 73 | 92 | 0.0 | 0.0 | 0.00 | 0.00 | 0.00 | 80 | 1014.2 |
| 20260905090621 | 73 | 92 | 0.0 | 0.0 | 0.00 | 0.00 | 0.00 | 80 | 1014.2 |
| 20260905090109 | 73 | 92 | 0.0 | 0.0 | 0.00 | 0.00 | 0.00 | 80 | 1014.1 |
| 20260905085609 | 73 | 92 | 0.0 | 0.0 | 0.00 | 0.00 | 0.00 | 80 | 1014.2 |
| 20260905085112 | 73 | 92 | 0.0 | 0.0 | 0.00 | 0.00 | 0.00 | 80 | 1014.2 |
| 20260905084609 | 73 | 92 | 0.0 | 0.0 | 0.00 | 0.00 | 0.00 | 80 | 1014.2 |
| 20260905084110 | 73 | 92 | 0.0 | 0.0 | 0.00 | 0.00 | 0.00 | 80 | 1014.3 |
| 20260905083609 | 73 | 92 | 0.0 | 0.0 | 0.00 | 0.00 | 0.00 | 80 | 1014.3 |
| 20260905083109 | 74 | 92 | 0.0 | 0.0 | 0.00 | 0.00 | 0.00 | 79 | 1014.3 |
| 20260905082609 | 74 | 92 | 0.0 | 0.0 | 0.00 | 0.00 | 0.00 | 80 | 1014.2 |
| 20260905082112 | 74 | 92 | 0.0 | 0.0 | 0.00 | 0.00 | 0.00 | 80 | 1014.2 |
| 20260905081619 | 74 | 92 | 0.0 | 0.0 | 0.00 | 0.00 | 0.00 | 80 | 1014.2 |
| 20260905081126 | 74 | 92 | 0.0 | 0.0 | 0.00 | 0.00 | 0.00 | 80 | 1014.2 |
| 20260905080621 | 74 | 92 | 0.0 | 0.0 | 0.00 | 0.00 | 0.00 | 80 | 1014.2 |
| 20260905080109 | 74 | 92 | 0.0 | 0.0 | 0.00 | 0.00 | 0.00 | 79 | 1014.3 |
| 20260905075609 | 74 | 92 | 0.0 | 0.0 | 0.00 | 0.00 | 0.00 | 79 | 1014.3 |
| 20260905075112 | 74 | 92 | 0.0 | 0.0 | 0.00 | 0.00 | 0.00 | 79 | 1014.4 |
| 20260905074619 | 74 | 92 | 0.0 | 0.0 | 0.00 | 0.00 | 0.00 | 79 | 1014.3 |
| 20260905074126 | 74 | 92 | 0.0 | 0.0 | 0.00 | 0.00 | 0.00 | 79 | 1014.3 |
| 20260905073621 | 74 | 92 | 0.0 | 0.0 | 0.00 | 0.00 | 0.00 | 79 | 1014.4 |
| 20260905073109 | 74 | 92 | 0.0 | 0.0 | 0.00 | 0.00 | 0.00 | 79 | 1014.4 |
| 20260905072612 | 74 | 92 | 0.0 | 0.0 | 0.00 | 0.00 | 0.00 | 79 | 1014.5 |
| 20260905072109 | 75 | 92 | 0.0 | 0.0 | 0.00 | 0.00 | 0.00 | 79 | 1014.4 |
| 20260905071609 | 75 | 92 | 0.0 | 0.0 | 0.00 | 0.00 | 0.00 | 79 | 1014.4 |
| 20260905071109 | 75 | 92 | 0.0 | 0.0 | 0.00 | 0.00 | 0.00 | 79 | 1014.3 |
| 20260905070609 | 75 | 92 | 0.0 | 0.0 | 0.00 | 0.00 | 0.00 | 79 | 1014.3 |
| 20260905070109 | 75 | 92 | 0.0 | 0.0 | 0.00 | 0.00 | 0.00 | 79 | 1014.4 |
| 20260905065609 | 75 | 92 | 0.0 | 0.0 | 0.00 | 0.00 | 0.00 | 78 | 1014.4 |
| 20260905065109 | 75 | 92 | 0.0 | 0.0 | 0.00 | 0.00 | 0.00 | 78 | 1014.4 |
| 20260905064609 | 75 | 92 | 0.0 | 0.0 | 0.00 | 0.00 | 0.00 | 78 | 1014.3 |
| 20260905064114 | 75 | 92 | 0.0 | 0.0 | 0.00 | 0.00 | 0.00 | 78 | 1014.3 |
| 20260905063621 | 76 | 92 | 0.0 | 0.0 | 0.00 | 0.00 | 0.00 | 77 | 1014.4 |
| 20260905063109 | 76 | 92 | 0.0 | 0.0 | 0.00 | 0.00 | 0.00 | 77 | 1014.5 |
| 20260905062614 | 76 | 92 | 0.0 | 0.0 | 0.00 | 0.00 | 0.00 | 77 | 1014.5 |
| 20260905062121 | 76 | 92 | 0.0 | 0.0 | 0.00 | 0.00 | 0.00 | 77 | 1014.5 |
| 20260905061609 | 76 | 92 | 0.0 | 0.0 | 0.00 | 0.00 | 0.00 | 77 | 1014.6 |
| 20260905061114 | 76 | 92 | 0.0 | 0.0 | 0.00 | 0.00 | 0.00 | 77 | 1014.6 |
| 20260905060621 | 76 | 92 | 0.0 | 0.0 | 0.00 | 0.00 | 0.00 | 77 | 1014.6 |
| 20260905060109 | 76 | 92 | 0.0 | 0.0 | 0.00 | 0.00 | 0.00 | 77 | 1014.7 |
| 20260905055609 | 76 | 92 | 0.0 | 0.0 | 0.00 | 0.00 | 0.00 | 77 | 1014.8 |
| 20260905055109 | 76 | 92 | 0.0 | 0.0 | 0.00 | 0.00 | 0.00 | 77 | 1014.9 |
| 20260905054609 | 77 | 92 | 0.0 | 0.0 | 0.00 | 0.00 | 0.00 | 77 | 1014.9 |
| 20260905054109 | 77 | 92 | 0.0 | 0.0 | 0.00 | 0.00 | 0.00 | 76 | 1014.7 |
| 20260905053615 | 77 | 92 | 0.0 | 0.0 | 0.00 | 0.00 | 0.00 | 75 | 1014.5 |
| 20260905053122 | 77 | 92 | 0.0 | 0.0 | 0.00 | 0.00 | 0.00 | 75 | 1014.5 |
| 20260905052609 | 77 | 92 | 0.0 | 0.0 | 0.00 | 0.00 | 0.00 | 74 | 1014.4 |
| 20260905052109 | 77 | 92 | 0.0 | 0.0 | 0.00 | 0.00 | 0.00 | 74 | 1014.6 |
| 20260905051609 | 77 | 92 | 0.0 | 0.0 | 0.00 | 0.00 | 0.00 | 74 | 1014.6 |
| 20260905051109 | 77 | 92 | 0.0 | 0.0 | 0.00 | 0.00 | 0.00 | 74 | 1014.7 |
| 20260905050610 | 78 | 92 | 0.0 | 0.0 | 0.00 | 0.00 | 0.00 | 73 | 1014.6 |
| 20260905050113 | 78 | 92 | 0.0 | 0.0 | 0.00 | 0.00 | 0.00 | 73 | 1014.8 |
| 20260905045620 | 78 | 92 | 0.0 | 0.0 | 0.00 | 0.00 | 0.00 | 73 | 1014.9 |
| 20260905045127 | 78 | 92 | 0.0 | 0.0 | 0.00 | 0.00 | 0.00 | 72 | 1015.1 |
| 20260905044634 | 78 | 92 | 0.0 | 0.0 | 0.00 | 0.00 | 0.00 | 72 | 1015.1 |
| 20260905044109 | 78 | 92 | 0.0 | 0.0 | 0.00 | 0.00 | 0.00 | 73 | 1015.3 |
| 20260905043609 | 78 | 92 | 0.0 | 0.0 | 0.00 | 0.00 | 0.00 | 72 | 1015.3 |
| 20260905043109 | 78 | 92 | 0.0 | 0.0 | 0.00 | 0.00 | 0.00 | 72 | 1015.2 |
| 20260905042614 | 79 | 92 | 0.0 | 0.0 | 0.00 | 0.00 | 0.00 | 72 | 1015.3 |
| 20260905042121 | 79 | 92 | 0.0 | 0.0 | 0.00 | 0.00 | 0.00 | 72 | 1015.4 |
| 20260905041614 | 79 | 92 | 0.0 | 0.0 | 0.00 | 0.00 | 0.00 | 70 | 1015.4 |
| 20260905041121 | 79 | 92 | 0.0 | 2.0 | 0.00 | 0.00 | 0.00 | 70 | 1015.3 |
| 20260905040609 | 79 | 92 | 0.0 | 2.0 | 0.00 | 0.00 | 0.00 | 70 | 1015.3 |
| 20260905040109 | 80 | 92 | 0.0 | 1.0 | 0.00 | 0.00 | 0.00 | 69 | 1015.2 |
| 20260905035609 | 80 | 92 | 0.0 | 0.0 | 0.00 | 0.00 | 0.00 | 69 | 1015.2 |
| 20260905035109 | 80 | 92 | 0.0 | 0.0 | 0.00 | 0.00 | 0.00 | 68 | 1015.1 |
| 20260905034609 | 80 | 92 | 0.0 | 0.0 | 0.00 | 0.00 | 0.00 | 68 | 1015.1 |
| 20260905034114 | 81 | 92 | 0.0 | 0.0 | 0.00 | 0.00 | 0.00 | 68 | 1015.1 |
| 20260905033621 | 81 | 92 | 0.0 | 0.0 | 0.00 | 0.00 | 0.00 | 68 | 1015.1 |
| 20260905033109 | 81 | 92 | 0.0 | 0.0 | 0.00 | 0.00 | 0.00 | 68 | 1015.1 |
| 20260905032609 | 81 | 92 | 0.0 | 0.0 | 0.00 | 0.00 | 0.00 | 67 | 1015.1 |
| 20260905032109 | 81 | 92 | 0.0 | 0.0 | 0.00 | 0.00 | 0.00 | 66 | 1015.2 |
| 20260905031612 | 81 | 92 | 0.0 | 0.0 | 0.00 | 0.00 | 0.00 | 66 | 1015.4 |
| 20260905031119 | 82 | 92 | 0.0 | 0.0 | 0.00 | 0.00 | 0.00 | 65 | 1015.4 |
| 20260905030626 | 82 | 92 | 0.0 | 0.0 | 0.00 | 0.00 | 0.00 | 65 | 1015.4 |
| 20260905030133 | 82 | 92 | 0.0 | 0.0 | 0.00 | 0.00 | 0.00 | 65 | 1015.4 |
| 20260905025609 | 82 | 92 | 0.0 | 0.0 | 0.00 | 0.00 | 0.00 | 64 | 1015.5 |
| 20260905025109 | 82 | 92 | 0.0 | 0.0 | 0.00 | 0.00 | 0.00 | 63 | 1015.4 |
| 20260905024609 | 83 | 92 | 0.0 | 0.0 | 0.00 | 0.00 | 0.00 | 63 | 1015.5 |
| 20260905024109 | 83 | 92 | 0.0 | 0.0 | 0.00 | 0.00 | 0.00 | 63 | 1015.4 |
| 20260905023609 | 83 | 92 | 0.0 | 0.0 | 0.00 | 0.00 | 0.00 | 63 | 1015.4 |
| 20260905023109 | 83 | 92 | 0.0 | 0.0 | 0.00 | 0.00 | 0.00 | 62 | 1015.4 |
| 20260905022616 | 84 | 92 | 0.0 | 0.0 | 0.00 | 0.00 | 0.00 | 61 | 1015.5 |
| 20260905022124 | 84 | 92 | 0.0 | 0.0 | 0.00 | 0.00 | 0.00 | 60 | 1015.4 |
| 20260905021631 | 84 | 92 | 0.0 | 0.0 | 0.00 | 0.00 | 0.00 | 60 | 1015.5 |
| 20260905021138 | 84 | 92 | 0.0 | 0.0 | 0.00 | 0.00 | 0.00 | 60 | 1015.5 |
| 20260905020621 | 85 | 92 | 0.0 | 0.0 | 0.00 | 0.00 | 0.00 | 60 | 1015.5 |
| 20260905020109 | 85 | 92 | 0.0 | 0.0 | 0.00 | 0.00 | 0.00 | 60 | 1015.5 |
| 20260905015612 | 85 | 92 | 0.0 | 0.0 | 0.00 | 0.00 | 0.00 | 58 | 1015.5 |
| 20260905015119 | 85 | 92 | 0.0 | 0.0 | 0.00 | 0.00 | 0.00 | 57 | 1015.6 |
| 20260905014626 | 86 | 92 | 0.0 | 0.0 | 0.00 | 0.00 | 0.00 | 58 | 1015.5 |
| 20260905014121 | 86 | 92 | 0.0 | 0.0 | 0.00 | 0.00 | 0.00 | 57 | 1015.4 |
| 20260905013609 | 86 | 92 | 0.0 | 0.0 | 0.00 | 0.00 | 0.00 | 57 | 1015.5 |
| 20260905013109 | 86 | 92 | 0.0 | 0.0 | 0.00 | 0.00 | 0.00 | 56 | 1015.4 |